Aérodrome :
LOGIN :

S'inscrire | Disclaimer

   EN    FR    IT 

 










Légende :    VFR   VFR Marginal   IFR   IFR Intensif   IFR Très Intensif
Visi : 
Plafond : 
>= 8 km
>= 3000ft
5 à 8 km
1000 à 3000 ft
1500m à 5 km
500 à 1000 ft
800 à 1500m
200 à 500 ft
< 800m
< 200 ft
Symboles :   Orages  Brouillard  Fortes neiges  Fortes précipitations  Vent > 20 kt
SIGMETs :   Divers  Orages  Givrage  Turbulence  Onde Orograph.  Cendres Volcan.







- Altitude de l'aérodrome : 194 ft
- Code IATA : ANE
- Voir les cartes d'approche


LFJR - Angers Marcé

DERNIER METAR :
  • 122230Z AUTO 21006KT CAVOK 11/10 Q1020

METARs EXPIRÉS :
  • 122200Z AUTO 22006KT 190V250 9999 FEW010 OVC170 11/10 Q1020
  • 122130Z AUTO 19004KT 160V220 9999 OVC010 10/09 Q1020
  • 122100Z AUTO 17004KT 9999 BKN016 BKN190 OVC230 10/09 Q1019
  • 122030Z AUTO 18003KT CAVOK 10/09 Q1019
  • 122000Z AUTO 19004KT CAVOK 11/09 Q1019

TAF TAF LFJR
Valide du 12 à 15h jusqu'au 13 à 00h UTC


121400Z 1215/1224 20008KT 9999 BKN020
Pas de NOTAMs connus pour ce terrain.



MET'MAP, la Météo Aéronautique d'un coup d'oeil ! - Copyright ORBIFLY Décembre 2007 - Disclaimer

ORBIFLY MET'MAP TEAM :

Programmation & Développement : Alexandra Zaïnal
Conception & Développement : Baudouin d'Aumeries
Co-Programmation & Développement : Marc-Olivier Méhu
Soutien technique & logistique : Manuel Goepfert

Contact : metmap@orbifly.com




SOURCES & CREDITS :

   NOAA